Portada
METAR-TAF:

METAR-TAF

Aeropuertos :

Praga, República Checa

latitud: 50-12-59N, longitud: 014-23-42E, altitud: 280 m

Observación

El informe se hizo hace 8 horas y 30 minutos, a las 14:00 UTC
Viento 8 kt del oeste
Temperatura 13°C
Humedad 77%
Presión 1028 hPa
Visibilidad 10 km o más
Nubes dispersas a una altura de 4900 ft
Cielo nuboso a una altura de 7200 ft

METAR: LKVO 281400Z 28008KT 9999 SCT049 BKN072 13/09 Q1028

Hora: 00:30 (22:30 UTC)


TAF: falta

Observaciones y pronósticos meteorológicos de más de 4000 aeropuertos (mensajes METAR y TAF).

Los puntos amarillos y rojos representan las estaciones disponibles.

Ponga el ratón en el punto deseado para ver el nombre de la estación.

Haga clic para ver las observaciones y los pronósticos meteorológicos.

Para cambiar el mapa : haga clic en los botones verdes con una cruz de color negro para hacer un zoom, en el botón verde con un guión para alejar o en las flechas verdes para mapas adyacentes.


METAR-TAF: